Date,TemperatureHighF,TemperatureAvgF,TemperatureLowF,DewpointHighF,DewpointAvgF,DewpointLowF,HumidityHigh,HumidityAvg,HumidityLow,PressureMaxIn,PressureMinIn,WindSpeedMaxMPH,WindSpeedAvgMPH,GustSpeedMaxMPH,PrecipitationSumIn
2013-11-1,51.4,42.9,37.9,40.3,37.4,33.3,92,82,63,29.85,29.42,0,0,0,0.00
2013-11-2,48.2,39.3,32.7,36.6,33.2,29.8,89,79,64,30.06,29.85,0,0,0,0.00
2013-11-3,54.3,44.3,35.4,39.0,34.6,30.8,86,70,50,30.08,29.87,0,0,0,0.00
2013-11-4,48.7,44.0,34.5,43.7,37.3,30.6,89,78,65,30.16,29.82,0,0,0,0.00
2013-11-5,44.8,35.5,28.9,35.6,30.0,26.0,91,81,59,30.24,30.03,0,0,0,0.00
2013-11-6,36.9,31.9,27.5,30.7,27.1,23.3,91,83,72,30.17,30.03,0,0,0,0.00
2013-11-7,35.8,29.1,23.2,30.8,25.6,20.7,91,87,81,30.24,30.16,0,0,0,0.00
2013-11-8,43.9,35.7,24.4,39.3,29.6,21.9,91,79,61,30.20,29.62,0,0,0,0.00
2013-11-9,43.5,40.3,35.1,39.0,33.3,26.9,87,76,63,30.22,29.65,0,0,0,0.00
2013-11-10,40.3,37.2,33.4,32.0,30.1,27.1,80,75,70,30.33,30.09,0,0,0,0.00
2013-11-11,37.6,24.3,14.7,32.0,14.7,7.9,83,67,57,30.71,30.12,0,0,0,0.00
2013-11-12,27.7,19.0,11.5,14.8,10.9,6.6,81,71,56,30.76,30.42,0,0,0,0.00
2013-11-13,50.5,35.1,21.0,36.7,25.7,14.0,76,69,58,30.42,29.88,0,0,0,0.00
2013-11-14,52.3,40.4,34.2,41.7,33.8,28.9,84,77,66,29.88,29.77,0,0,0,0.00
2013-11-15,53.4,40.7,30.0,42.4,34.8,27.2,90,80,63,29.85,29.64,0,0,0,0.00
2013-11-16,48.6,43.6,38.5,47.2,41.0,34.1,95,90,77,29.65,29.26,0,0,0,0.00
2013-11-17,43.5,38.9,30.9,40.2,34.8,24.5,94,85,77,29.86,29.34,0,0,0,0.00
2013-11-18,34.3,29.1,23.2,25.2,22.1,18.8,83,75,65,30.25,29.85,0,0,0,0.00
2013-11-19,47.1,35.4,22.3,33.1,27.1,18.1,86,72,57,30.25,29.90,0,0,0,0.00
2013-11-20,45.3,42.5,38.3,34.1,31.8,28.4,84,66,55,30.03,29.87,0,0,0,0.00
2013-11-21,38.5,30.7,23.0,34.6,25.9,15.9,89,82,73,30.51,30.03,0,0,0,0.00
2013-11-22,34.0,22.0,12.0,15.9,12.1,3.4,81,67,39,30.63,30.44,0,0,0,0.00
2013-11-23,17.4,11.1,6.1,5.9,2.8,1.1,80,69,54,30.82,30.62,0,0,0,0.00
2013-11-24,31.1,19.3,6.4,17.4,10.2,0.1,77,68,55,30.68,29.98,0,0,0,0.00
2013-11-25,38.5,32.9,27.0,29.6,24.3,17.4,82,71,61,30.09,29.91,0,0,0,0.00
2013-11-26,30.0,20.4,11.8,21.7,9.1,4.5,73,61,53,30.37,30.08,0,0,0,0.00
2013-11-27,25.0,17.2,8.2,13.4,8.8,3.4,81,70,58,30.37,30.06,0,0,0,0.00
2013-11-28,26.4,21.2,12.7,16.3,12.6,7.1,79,69,63,30.49,30.05,0,0,0,0.00
2013-11-29,33.4,22.8,11.3,21.3,15.5,6.3,81,74,60,30.50,30.12,0,0,0,0.00
2013-11-30,40.8,31.2,24.4,30.5,24.4,19.6,85,76,65,30.16,30.02,0,0,0,0.00